Terminal Aerodrome Forecast
Issued by NWS

Home | Current Version | Previous Version | Text Only | Print | Product List | Glossary On
Versions: 1 2 3 4 5 6 7 8 9 10 11 12 13
740
FTUS46 KLOX 172359
TAFSBP
TAF
KSBP 172359Z 1800/1824 24006KT P6SM BKN250
     FM180400 VRB03KT P6SM SCT007 OVC250
     FM180800 15005KT 3SM BR BKN007 BKN150
     FM181300 15010KT P6SM BKN015 BKN090
     FM182100 22012KT P6SM -SHRA BKN020 OVC040=

USA.gov is the U.S. government's official web portal to all federal, state and local government web resources and services.